sensor_id;sensor_type;location;lat;lon;timestamp;pressure;altitude;pressure_sealevel;temperature;humidity
53647;BME280;39550;52.230;5.194;2023-07-30T00:00:38;100719.50;;;18.44;73.97
53647;BME280;39550;52.230;5.194;2023-07-30T00:03:03;100720.38;;;18.43;74.10
53647;BME280;39550;52.230;5.194;2023-07-30T00:05:28;100721.31;;;18.42;73.86
53647;BME280;39550;52.230;5.194;2023-07-30T00:07:54;100721.31;;;18.42;74.03
53647;BME280;39550;52.230;5.194;2023-07-30T00:10:20;100721.34;;;18.40;73.90
53647;BME280;39550;52.230;5.194;2023-07-30T00:12:46;100708.50;;;18.32;74.08
53647;BME280;39550;52.230;5.194;2023-07-30T00:15:11;100720.47;;;18.40;73.45
53647;BME280;39550;52.230;5.194;2023-07-30T00:17:38;100724.81;;;18.41;73.83
53647;BME280;39550;52.230;5.194;2023-07-30T00:20:05;100731.81;;;18.38;73.81
53647;BME280;39550;52.230;5.194;2023-07-30T00:22:32;100723.19;;;18.36;73.88
53647;BME280;39550;52.230;5.194;2023-07-30T00:24:57;100723.22;;;18.35;74.56
53647;BME280;39550;52.230;5.194;2023-07-30T00:27:23;100722.34;;;18.34;73.75
53647;BME280;39550;52.230;5.194;2023-07-30T00:29:48;100734.59;;;18.32;73.99
53647;BME280;39550;52.230;5.194;2023-07-30T00:32:13;100730.22;;;18.33;74.03
53647;BME280;39550;52.230;5.194;2023-07-30T00:34:41;100710.38;;;18.27;74.06
53647;BME280;39550;52.230;5.194;2023-07-30T00:37:06;100728.53;;;18.32;73.89
53647;BME280;39550;52.230;5.194;2023-07-30T00:39:33;100712.19;;;18.25;74.20
53647;BME280;39550;52.230;5.194;2023-07-30T00:41:59;100731.16;;;18.30;74.05
53647;BME280;39550;52.230;5.194;2023-07-30T00:44:25;100728.53;;;18.30;74.08
53647;BME280;39550;52.230;5.194;2023-07-30T00:46:50;100725.13;;;18.28;73.89
53647;BME280;39550;52.230;5.194;2023-07-30T00:49:16;100702.06;;;18.13;74.08
53647;BME280;39550;52.230;5.194;2023-07-30T00:51:42;100720.88;;;18.24;74.23
53647;BME280;39550;52.230;5.194;2023-07-30T00:54:07;100726.06;;;18.26;74.21
53647;BME280;39550;52.230;5.194;2023-07-30T00:56:33;100727.81;;;18.25;73.81
53647;BME280;39550;52.230;5.194;2023-07-30T00:58:59;100733.03;;;18.25;74.13
53647;BME280;39550;52.230;5.194;2023-07-30T01:01:26;100724.38;;;18.23;74.15
53647;BME280;39550;52.230;5.194;2023-07-30T01:03:52;100729.59;;;18.23;73.87
53647;BME280;39550;52.230;5.194;2023-07-30T01:06:18;100737.44;;;18.23;73.86
53647;BME280;39550;52.230;5.194;2023-07-30T01:08:47;100738.34;;;18.22;73.86
53647;BME280;39550;52.230;5.194;2023-07-30T01:11:14;100742.69;;;18.21;73.75
53647;BME280;39550;52.230;5.194;2023-07-30T01:13:41;100738.41;;;18.19;74.02
53647;BME280;39550;52.230;5.194;2023-07-30T01:16:07;100744.50;;;18.19;73.89
53647;BME280;39550;52.230;5.194;2023-07-30T01:18:35;100741.00;;;18.19;74.08
53647;BME280;39550;52.230;5.194;2023-07-30T01:21:00;100741.94;;;18.18;73.93
53647;BME280;39550;52.230;5.194;2023-07-30T01:23:26;100741.94;;;18.18;73.69
53647;BME280;39550;52.230;5.194;2023-07-30T01:26:10;100743.69;;;18.16;74.02
53647;BME280;39550;52.230;5.194;2023-07-30T01:28:46;100745.41;;;18.17;73.94
53647;BME280;39550;52.230;5.194;2023-07-30T01:31:15;100749.75;;;18.16;73.98
53647;BME280;39550;52.230;5.194;2023-07-30T01:33:41;100743.69;;;18.16;73.62
53647;BME280;39550;52.230;5.194;2023-07-30T01:36:10;100740.25;;;18.15;73.78
53647;BME280;39550;52.230;5.194;2023-07-30T01:38:40;100747.19;;;18.15;74.02
53647;BME280;39550;52.230;5.194;2023-07-30T01:41:06;100750.72;;;18.14;73.72
53647;BME280;39550;52.230;5.194;2023-07-30T01:43:31;100749.84;;;18.13;73.92
53647;BME280;39550;52.230;5.194;2023-07-30T01:45:56;100744.66;;;18.12;73.84
53647;BME280;39550;52.230;5.194;2023-07-30T01:48:22;100742.91;;;18.12;73.71
53647;BME280;39550;52.230;5.194;2023-07-30T01:50:47;100738.66;;;18.10;73.76
53647;BME280;39550;52.230;5.194;2023-07-30T01:53:14;100750.78;;;18.11;74.06
53647;BME280;39550;52.230;5.194;2023-07-30T01:55:39;100742.16;;;18.09;74.05
53647;BME280;39550;52.230;5.194;2023-07-30T01:58:09;100749.09;;;18.10;73.95
53647;BME280;39550;52.230;5.194;2023-07-30T02:00:36;100751.69;;;18.08;74.26
53647;BME280;39550;52.230;5.194;2023-07-30T02:03:01;100747.50;;;18.02;73.74
53647;BME280;39550;52.230;5.194;2023-07-30T02:05:26;100754.34;;;18.07;74.58
53647;BME280;39550;52.230;5.194;2023-07-30T02:07:52;100756.97;;;18.07;74.01
53647;BME280;39550;52.230;5.194;2023-07-30T02:10:17;100750.94;;;18.04;73.80
53647;BME280;39550;52.230;5.194;2023-07-30T02:12:43;100742.38;;;17.99;73.79
53647;BME280;39550;52.230;5.194;2023-07-30T02:15:09;100750.94;;;18.04;74.44
53647;BME280;39550;52.230;5.194;2023-07-30T02:17:34;100746.63;;;18.03;74.18
53647;BME280;39550;52.230;5.194;2023-07-30T02:19:59;100752.72;;;18.02;74.06
53647;BME280;39550;52.230;5.194;2023-07-30T02:22:25;100748.38;;;18.03;73.98
53647;BME280;39550;52.230;5.194;2023-07-30T02:24:51;100751.88;;;18.02;73.95
53647;BME280;39550;52.230;5.194;2023-07-30T02:27:16;100755.34;;;18.01;74.08
53647;BME280;39550;52.230;5.194;2023-07-30T02:29:41;100745.81;;;18.01;74.13
53647;BME280;39550;52.230;5.194;2023-07-30T02:32:08;100749.31;;;18.00;74.09
53647;BME280;39550;52.230;5.194;2023-07-30T02:34:35;100753.66;;;18.00;74.16
53647;BME280;39550;52.230;5.194;2023-07-30T02:37:00;100747.59;;;17.99;74.33
53647;BME280;39550;52.230;5.194;2023-07-30T02:39:25;100746.75;;;17.99;74.30
53647;BME280;39550;52.230;5.194;2023-07-30T02:41:51;100745.84;;;17.98;74.19
53647;BME280;39550;52.230;5.194;2023-07-30T02:44:17;100740.66;;;17.98;73.93
53647;BME280;39550;52.230;5.194;2023-07-30T02:46:42;100738.03;;;17.98;74.12
53647;BME280;39550;52.230;5.194;2023-07-30T02:49:08;100738.06;;;17.97;73.96
53647;BME280;39550;52.230;5.194;2023-07-30T02:51:34;100738.13;;;17.95;74.07
53647;BME280;39550;52.230;5.194;2023-07-30T02:54:04;100734.66;;;17.95;74.09
53647;BME280;39550;52.230;5.194;2023-07-30T02:56:30;100739.00;;;17.94;74.16
53647;BME280;39550;52.230;5.194;2023-07-30T02:58:58;100733.78;;;17.94;74.52
53647;BME280;39550;52.230;5.194;2023-07-30T03:01:23;100739.94;;;17.93;74.50
53647;BME280;39550;52.230;5.194;2023-07-30T03:03:49;100732.13;;;17.90;74.43
53647;BME280;39550;52.230;5.194;2023-07-30T03:06:14;100737.34;;;17.90;74.71
53647;BME280;39550;52.230;5.194;2023-07-30T03:08:42;100730.44;;;17.89;74.28
53647;BME280;39550;52.230;5.194;2023-07-30T03:11:07;100737.38;;;17.88;74.41
53647;BME280;39550;52.230;5.194;2023-07-30T03:13:35;100739.09;;;17.90;74.40
53647;BME280;39550;52.230;5.194;2023-07-30T03:16:01;100735.66;;;17.89;74.59
53647;BME280;39550;52.230;5.194;2023-07-30T03:18:26;100745.25;;;17.87;74.32
53647;BME280;39550;52.230;5.194;2023-07-30T03:20:57;100739.22;;;17.85;74.82
53647;BME280;39550;52.230;5.194;2023-07-30T03:23:23;100737.41;;;17.87;74.51
53647;BME280;39550;52.230;5.194;2023-07-30T03:25:48;100746.13;;;17.86;74.58
53647;BME280;39550;52.230;5.194;2023-07-30T03:28:13;100749.66;;;17.85;74.80
53647;BME280;39550;52.230;5.194;2023-07-30T03:30:39;100744.47;;;17.82;74.57
53647;BME280;39550;52.230;5.194;2023-07-30T03:33:04;100749.66;;;17.85;74.88
53647;BME280;39550;52.230;5.194;2023-07-30T03:35:30;100756.63;;;17.83;74.69
53647;BME280;39550;52.230;5.194;2023-07-30T03:37:55;100749.69;;;17.82;74.75
53647;BME280;39550;52.230;5.194;2023-07-30T03:40:20;100754.91;;;17.82;74.67
53647;BME280;39550;52.230;5.194;2023-07-30T03:42:46;100754.91;;;17.82;74.62
53647;BME280;39550;52.230;5.194;2023-07-30T03:45:11;100753.22;;;17.81;74.65
53647;BME280;39550;52.230;5.194;2023-07-30T03:47:37;100748.03;;;17.79;74.86
53647;BME280;39550;52.230;5.194;2023-07-30T03:50:02;100739.50;;;17.73;74.46
53647;BME280;39550;52.230;5.194;2023-07-30T03:52:27;100753.28;;;17.78;74.62
53647;BME280;39550;52.230;5.194;2023-07-30T03:54:53;100748.09;;;17.78;74.97
53647;BME280;39550;52.230;5.194;2023-07-30T03:57:18;100742.88;;;17.76;74.88
53647;BME280;39550;52.230;5.194;2023-07-30T03:59:43;100745.47;;;17.78;74.97
53647;BME280;39550;52.230;5.194;2023-07-30T04:02:09;100747.31;;;17.73;74.83
53647;BME280;39550;52.230;5.194;2023-07-30T04:04:34;100755.06;;;17.76;74.95
53647;BME280;39550;52.230;5.194;2023-07-30T04:06:59;100755.91;;;17.78;74.93
53647;BME280;39550;52.230;5.194;2023-07-30T04:09:25;100757.63;;;17.77;74.94
53647;BME280;39550;52.230;5.194;2023-07-30T04:11:50;100753.31;;;17.76;74.69
53647;BME280;39550;52.230;5.194;2023-07-30T04:14:16;100758.50;;;17.78;75.00
53647;BME280;39550;52.230;5.194;2023-07-30T04:16:41;100765.50;;;17.76;75.10
53647;BME280;39550;52.230;5.194;2023-07-30T04:19:09;100760.28;;;17.76;74.98
53647;BME280;39550;52.230;5.194;2023-07-30T04:21:34;100751.69;;;17.70;74.92
53647;BME280;39550;52.230;5.194;2023-07-30T04:23:59;100770.72;;;17.76;75.13
53647;BME280;39550;52.230;5.194;2023-07-30T04:26:25;100745.00;;;17.60;74.92
53647;BME280;39550;52.230;5.194;2023-07-30T04:28:50;100756.03;;;17.72;74.77
53647;BME280;39550;52.230;5.194;2023-07-30T04:31:15;100764.66;;;17.75;75.15
53647;BME280;39550;52.230;5.194;2023-07-30T04:33:41;100765.56;;;17.73;74.88
53647;BME280;39550;52.230;5.194;2023-07-30T04:36:06;100772.50;;;17.74;75.15
53647;BME280;39550;52.230;5.194;2023-07-30T04:38:33;100769.91;;;17.72;75.19
53647;BME280;39550;52.230;5.194;2023-07-30T04:40:58;100755.28;;;17.66;75.06
53647;BME280;39550;52.230;5.194;2023-07-30T04:43:24;100770.81;;;17.71;75.32
53647;BME280;39550;52.230;5.194;2023-07-30T04:45:49;100773.38;;;17.73;75.17
53647;BME280;39550;52.230;5.194;2023-07-30T04:48:14;100765.69;;;17.66;75.26
53647;BME280;39550;52.230;5.194;2023-07-30T04:50:40;100773.44;;;17.71;75.12
53647;BME280;39550;52.230;5.194;2023-07-30T04:53:07;100769.91;;;17.72;74.99
53647;BME280;39550;52.230;5.194;2023-07-30T04:55:33;100770.88;;;17.69;75.39
53647;BME280;39550;52.230;5.194;2023-07-30T04:57:59;100778.69;;;17.69;74.94
53647;BME280;39550;52.230;5.194;2023-07-30T05:00:24;100770.88;;;17.69;75.21
53647;BME280;39550;52.230;5.194;2023-07-30T05:02:49;100773.50;;;17.66;75.16
53647;BME280;39550;52.230;5.194;2023-07-30T05:05:15;100778.69;;;17.68;75.17
53647;BME280;39550;52.230;5.194;2023-07-30T05:07:40;100769.94;;;17.70;75.09
53647;BME280;39550;52.230;5.194;2023-07-30T05:10:06;100775.22;;;17.67;75.22
53647;BME280;39550;52.230;5.194;2023-07-30T05:12:33;100769.13;;;17.68;75.37
53647;BME280;39550;52.230;5.194;2023-07-30T05:14:59;100773.47;;;17.68;75.62
53647;BME280;39550;52.230;5.194;2023-07-30T05:17:24;100777.00;;;17.67;75.32
53647;BME280;39550;52.230;5.194;2023-07-30T05:19:49;100776.06;;;17.69;75.33
53647;BME280;39550;52.230;5.194;2023-07-30T05:22:15;100776.06;;;17.68;75.18
53647;BME280;39550;52.230;5.194;2023-07-30T05:24:40;100776.06;;;17.69;75.32
53647;BME280;39550;52.230;5.194;2023-07-30T05:27:06;100790.00;;;17.68;75.21
53647;BME280;39550;52.230;5.194;2023-07-30T05:29:31;100781.34;;;17.66;75.53
53647;BME280;39550;52.230;5.194;2023-07-30T05:31:56;100783.06;;;17.67;75.42
53647;BME280;39550;52.230;5.194;2023-07-30T05:34:22;100784.78;;;17.68;75.48
53647;BME280;39550;52.230;5.194;2023-07-30T05:36:47;100793.47;;;17.67;75.57
53647;BME280;39550;52.230;5.194;2023-07-30T05:39:13;100788.25;;;17.67;75.36
53647;BME280;39550;52.230;5.194;2023-07-30T05:41:38;100786.53;;;17.66;75.43
53647;BME280;39550;52.230;5.194;2023-07-30T05:44:03;100792.59;;;17.68;75.60
53647;BME280;39550;52.230;5.194;2023-07-30T05:46:29;100791.72;;;17.69;75.52
53647;BME280;39550;52.230;5.194;2023-07-30T05:48:54;100776.91;;;17.70;75.52
53647;BME280;39550;52.230;5.194;2023-07-30T05:51:19;100788.19;;;17.70;75.32
53647;BME280;39550;52.230;5.194;2023-07-30T05:53:45;100781.28;;;17.69;75.41
53647;BME280;39550;52.230;5.194;2023-07-30T05:56:10;100781.28;;;17.69;75.16
53647;BME280;39550;52.230;5.194;2023-07-30T05:58:38;100786.50;;;17.69;75.47
53647;BME280;39550;52.230;5.194;2023-07-30T06:01:03;100778.84;;;17.62;75.31
53647;BME280;39550;52.230;5.194;2023-07-30T06:03:28;100786.50;;;17.69;75.49
53647;BME280;39550;52.230;5.194;2023-07-30T06:05:54;100785.63;;;17.69;75.57
53647;BME280;39550;52.230;5.194;2023-07-30T06:08:19;100785.63;;;17.69;75.44
53647;BME280;39550;52.230;5.194;2023-07-30T06:10:45;100792.50;;;17.72;75.19
53647;BME280;39550;52.230;5.194;2023-07-30T06:13:12;100789.09;;;17.69;75.59
53647;BME280;39550;52.230;5.194;2023-07-30T06:15:37;100790.00;;;17.68;75.49
53647;BME280;39550;52.230;5.194;2023-07-30T06:18:03;100781.41;;;17.63;75.30
53647;BME280;39550;52.230;5.194;2023-07-30T06:20:29;100787.38;;;17.68;75.53
53647;BME280;39550;52.230;5.194;2023-07-30T06:22:54;100795.19;;;17.68;75.58
53647;BME280;39550;52.230;5.194;2023-07-30T06:25:19;100787.38;;;17.68;75.70
53647;BME280;39550;52.230;5.194;2023-07-30T06:27:45;100776.13;;;17.66;75.37
53647;BME280;39550;52.230;5.194;2023-07-30T06:30:11;100791.75;;;17.66;75.19
53647;BME280;39550;52.230;5.194;2023-07-30T06:32:36;100792.59;;;17.68;75.36
53647;BME280;39550;52.230;5.194;2023-07-30T06:35:02;100778.88;;;17.60;75.83
53647;BME280;39550;52.230;5.194;2023-07-30T06:37:28;100785.72;;;17.64;76.08
53647;BME280;39550;52.230;5.194;2023-07-30T06:39:53;100780.56;;;17.63;75.88
53647;BME280;39550;52.230;5.194;2023-07-30T06:42:19;100794.47;;;17.62;75.99
53647;BME280;39550;52.230;5.194;2023-07-30T06:44:44;100792.75;;;17.61;75.78
53647;BME280;39550;52.230;5.194;2023-07-30T06:47:09;100789.34;;;17.59;76.16
53647;BME280;39550;52.230;5.194;2023-07-30T06:49:36;100795.41;;;17.59;76.22
53647;BME280;39550;52.230;5.194;2023-07-30T06:52:02;100789.28;;;17.60;75.89
53647;BME280;39550;52.230;5.194;2023-07-30T06:54:29;100784.91;;;17.62;75.91
53647;BME280;39550;52.230;5.194;2023-07-30T06:56:54;100784.91;;;17.62;75.99
53647;BME280;39550;52.230;5.194;2023-07-30T06:59:20;100777.91;;;17.64;75.57
53647;BME280;39550;52.230;5.194;2023-07-30T07:01:45;100785.72;;;17.64;75.48
53647;BME280;39550;52.230;5.194;2023-07-30T07:04:11;100789.09;;;17.69;75.43
53647;BME280;39550;52.230;5.194;2023-07-30T07:06:36;100791.72;;;17.69;75.60
53647;BME280;39550;52.230;5.194;2023-07-30T07:09:02;100788.19;;;17.70;75.34
53647;BME280;39550;52.230;5.194;2023-07-30T07:11:28;100795.97;;;17.72;75.25
53647;BME280;39550;52.230;5.194;2023-07-30T07:13:53;100784.69;;;17.72;75.59
53647;BME280;39550;52.230;5.194;2023-07-30T07:16:18;100794.19;;;17.74;75.44
53647;BME280;39550;52.230;5.194;2023-07-30T07:18:45;100786.50;;;17.69;75.53
53647;BME280;39550;52.230;5.194;2023-07-30T07:21:10;100795.19;;;17.68;75.93
53647;BME280;39550;52.230;5.194;2023-07-30T07:23:36;100779.59;;;17.67;75.87
53647;BME280;39550;52.230;5.194;2023-07-30T07:26:01;100779.56;;;17.68;75.67
53647;BME280;39550;52.230;5.194;2023-07-30T07:28:28;100786.53;;;17.66;75.67
53647;BME280;39550;52.230;5.194;2023-07-30T07:30:54;100799.56;;;17.66;75.32
53647;BME280;39550;52.230;5.194;2023-07-30T07:33:21;100804.75;;;17.68;75.71
53647;BME280;39550;52.230;5.194;2023-07-30T07:35:48;100791.75;;;17.66;75.58
53647;BME280;39550;52.230;5.194;2023-07-30T07:38:14;100798.56;;;17.74;75.50
53647;BME280;39550;52.230;5.194;2023-07-30T07:40:40;100804.66;;;17.73;75.80
53647;BME280;39550;52.230;5.194;2023-07-30T07:43:07;100803.06;;;17.67;75.24
53647;BME280;39550;52.230;5.194;2023-07-30T07:45:33;100817.81;;;17.66;75.84
53647;BME280;39550;52.230;5.194;2023-07-30T07:47:58;100814.41;;;17.64;75.61
53647;BME280;39550;52.230;5.194;2023-07-30T07:50:23;100814.47;;;17.61;75.70
53647;BME280;39550;52.230;5.194;2023-07-30T07:52:49;100816.19;;;17.61;75.97
53647;BME280;39550;52.230;5.194;2023-07-30T07:55:14;100810.16;;;17.60;75.81
53647;BME280;39550;52.230;5.194;2023-07-30T07:57:40;100815.44;;;17.57;76.07
53647;BME280;39550;52.230;5.194;2023-07-30T08:00:06;100822.41;;;17.55;76.00
53647;BME280;39550;52.230;5.194;2023-07-30T08:02:32;100827.66;;;17.53;76.00
53647;BME280;39550;52.230;5.194;2023-07-30T08:07:24;100788.78;;;17.43;76.31
53647;BME280;39550;52.230;5.194;2023-07-30T08:09:49;100814.59;;;17.55;76.36
53647;BME280;39550;52.230;5.194;2023-07-30T08:12:16;100807.88;;;17.45;76.38
53647;BME280;39550;52.230;5.194;2023-07-30T08:14:42;100820.59;;;17.59;76.10
53647;BME280;39550;52.230;5.194;2023-07-30T08:17:07;100829.19;;;17.62;76.01
53647;BME280;39550;52.230;5.194;2023-07-30T08:19:32;100811.22;;;17.51;75.96
53647;BME280;39550;52.230;5.194;2023-07-30T08:21:58;100790.59;;;17.41;75.77
53647;BME280;39550;52.230;5.194;2023-07-30T08:24:24;100825.00;;;17.55;76.00
53647;BME280;39550;52.230;5.194;2023-07-30T08:26:49;100825.78;;;17.60;76.25
53647;BME280;39550;52.230;5.194;2023-07-30T08:29:14;100814.59;;;17.55;76.10
53647;BME280;39550;52.230;5.194;2023-07-30T08:31:40;100816.31;;;17.56;76.18
53647;BME280;39550;52.230;5.194;2023-07-30T08:34:06;100812.81;;;17.57;75.93
53647;BME280;39550;52.230;5.194;2023-07-30T08:36:31;100745.91;;;17.18;76.15
53647;BME280;39550;52.230;5.194;2023-07-30T08:38:57;100810.94;;;17.62;75.75
53647;BME280;39550;52.230;5.194;2023-07-30T08:41:23;100807.34;;;17.68;75.63
53647;BME280;39550;52.230;5.194;2023-07-30T08:43:48;100831.34;;;17.84;75.47
53647;BME280;39550;52.230;5.194;2023-07-30T08:46:15;100781.47;;;17.60;75.62
53647;BME280;39550;52.230;5.194;2023-07-30T08:48:40;100791.22;;;17.52;75.59
53647;BME280;39550;52.230;5.194;2023-07-30T08:51:06;100806.66;;;17.61;75.85
53647;BME280;39550;52.230;5.194;2023-07-30T08:53:32;100818.47;;;17.76;75.60
53647;BME280;39550;52.230;5.194;2023-07-30T08:55:58;100749.00;;;17.36;75.66
53647;BME280;39550;52.230;5.194;2023-07-30T08:58:25;100828.88;;;17.78;75.71
53647;BME280;39550;52.230;5.194;2023-07-30T09:00:53;100767.88;;;17.46;75.44
53647;BME280;39550;52.230;5.194;2023-07-30T09:03:20;100831.34;;;17.84;75.65
53647;BME280;39550;52.230;5.194;2023-07-30T09:05:48;100792.81;;;17.58;75.28
53647;BME280;39550;52.230;5.194;2023-07-30T09:08:14;100773.06;;;17.49;75.41
53647;BME280;39550;52.230;5.194;2023-07-30T09:10:39;100809.63;;;17.83;75.05
53647;BME280;39550;52.230;5.194;2023-07-30T09:13:05;100809.53;;;17.88;74.90
53647;BME280;39550;52.230;5.194;2023-07-30T09:15:32;100838.03;;;17.97;74.57
53647;BME280;39550;52.230;5.194;2023-07-30T09:17:59;100821.59;;;17.94;74.85
53647;BME280;39550;52.230;5.194;2023-07-30T09:20:24;100829.44;;;17.92;74.56
53647;BME280;39550;52.230;5.194;2023-07-30T09:22:50;100805.44;;;17.78;74.64
53647;BME280;39550;52.230;5.194;2023-07-30T09:25:18;100813.91;;;17.86;74.83
53647;BME280;39550;52.230;5.194;2023-07-30T09:27:49;100793.63;;;17.61;74.77
53647;BME280;39550;52.230;5.194;2023-07-30T09:30:21;100846.78;;;17.95;74.83
53647;BME280;39550;52.230;5.194;2023-07-30T09:32:51;100849.38;;;17.95;74.61
53647;BME280;39550;52.230;5.194;2023-07-30T09:35:17;100852.84;;;17.95;75.06
53647;BME280;39550;52.230;5.194;2023-07-30T09:37:43;100854.69;;;17.88;74.91
53647;BME280;39550;52.230;5.194;2023-07-30T09:40:12;100853.03;;;17.84;75.38
53647;BME280;39550;52.230;5.194;2023-07-30T09:42:42;100818.06;;;17.56;75.40
53647;BME280;39550;52.230;5.194;2023-07-30T09:45:22;100857.59;;;17.75;75.36
53647;BME280;39550;52.230;5.194;2023-07-30T09:47:48;100862.69;;;17.81;75.17
53647;BME280;39550;52.230;5.194;2023-07-30T09:50:15;100867.63;;;17.95;74.29
53647;BME280;39550;52.230;5.194;2023-07-30T09:52:41;100875.47;;;17.95;74.51
53647;BME280;39550;52.230;5.194;2023-07-30T09:55:08;100866.19;;;17.80;74.39
53647;BME280;39550;52.230;5.194;2023-07-30T09:57:33;100887.63;;;17.94;74.02
53647;BME280;39550;52.230;5.194;2023-07-30T10:00:00;100896.25;;;17.98;73.65
53647;BME280;39550;52.230;5.194;2023-07-30T10:02:28;100866.00;;;17.89;72.38
53647;BME280;39550;52.230;5.194;2023-07-30T10:04:56;100841.53;;;17.96;71.26
53647;BME280;39550;52.230;5.194;2023-07-30T10:07:25;100881.72;;;18.25;70.52
53647;BME280;39550;52.230;5.194;2023-07-30T10:09:54;100801.69;;;17.88;70.87
53647;BME280;39550;52.230;5.194;2023-07-30T10:12:32;100825.75;;;18.01;69.68
53647;BME280;39550;52.230;5.194;2023-07-30T10:15:00;100824.28;;;17.89;70.06
53647;BME280;39550;52.230;5.194;2023-07-30T10:17:28;100864.03;;;18.00;69.86
53647;BME280;39550;52.230;5.194;2023-07-30T10:19:54;100907.69;;;18.30;69.13
53647;BME280;39550;52.230;5.194;2023-07-30T10:22:55;100785.59;;;17.70;68.84
53647;BME280;39550;52.230;5.194;2023-07-30T10:25:48;100897.69;;;18.49;67.07
53647;BME280;39550;52.230;5.194;2023-07-30T10:31:00;100785.22;;;17.87;65.66
53647;BME280;39550;52.230;5.194;2023-07-30T10:33:44;100820.66;;;17.96;66.30
53647;BME280;39550;52.230;5.194;2023-07-30T10:36:10;100776.19;;;17.63;66.52
53647;BME280;39550;52.230;5.194;2023-07-30T10:38:39;100835.66;;;17.85;67.10
53647;BME280;39550;52.230;5.194;2023-07-30T10:41:13;100804.06;;;17.61;66.92
53647;BME280;39550;52.230;5.194;2023-07-30T10:43:39;100898.34;;;18.21;67.21
53647;BME280;39550;52.230;5.194;2023-07-30T10:46:06;100835.09;;;17.70;67.45
53647;BME280;39550;52.230;5.194;2023-07-30T10:48:36;100803.97;;;17.64;67.15
53647;BME280;39550;52.230;5.194;2023-07-30T10:51:05;100831.41;;;17.81;67.00
53647;BME280;39550;52.230;5.194;2023-07-30T10:53:33;100833.97;;;17.82;66.78
53647;BME280;39550;52.230;5.194;2023-07-30T10:56:05;100922.25;;;18.38;67.43
53647;BME280;39550;52.230;5.194;2023-07-30T10:58:35;100925.84;;;18.34;67.73
53647;BME280;39550;52.230;5.194;2023-07-30T11:01:05;100929.47;;;18.27;68.38
53647;BME280;39550;52.230;5.194;2023-07-30T11:03:31;100870.38;;;17.87;68.35
53647;BME280;39550;52.230;5.194;2023-07-30T11:05:58;100940.00;;;18.24;68.20
53647;BME280;39550;52.230;5.194;2023-07-30T11:08:40;100942.47;;;18.29;68.16
53647;BME280;39550;52.230;5.194;2023-07-30T11:11:08;100867.69;;;17.90;68.03
53647;BME280;39550;52.230;5.194;2023-07-30T11:13:38;100873.50;;;18.04;68.11
53647;BME280;39550;52.230;5.194;2023-07-30T11:16:13;100871.81;;;18.02;68.08
53647;BME280;39550;52.230;5.194;2023-07-30T11:18:42;100870.97;;;18.01;68.20
53647;BME280;39550;52.230;5.194;2023-07-30T11:21:11;100845.25;;;17.83;67.68
53647;BME280;39550;52.230;5.194;2023-07-30T11:23:44;100943.09;;;18.42;68.47
53647;BME280;39550;52.230;5.194;2023-07-30T11:26:23;100896.53;;;18.23;68.45
53647;BME280;39550;52.230;5.194;2023-07-30T11:29:40;100883.09;;;18.02;68.15
53647;BME280;39550;52.230;5.194;2023-07-30T11:32:33;100953.53;;;18.42;68.77
53647;BME280;39550;52.230;5.194;2023-07-30T11:34:59;100951.72;;;18.44;68.42
53647;BME280;39550;52.230;5.194;2023-07-30T11:37:25;100925.78;;;18.37;68.26
53647;BME280;39550;52.230;5.194;2023-07-30T11:39:51;100869.97;;;18.07;68.45
53647;BME280;39550;52.230;5.194;2023-07-30T11:42:19;100899.81;;;18.31;68.54
53647;BME280;39550;52.230;5.194;2023-07-30T11:44:45;100917.03;;;18.38;68.26
53647;BME280;39550;52.230;5.194;2023-07-30T11:47:11;100898.91;;;18.34;68.57
53647;BME280;39550;52.230;5.194;2023-07-30T11:49:36;100940.91;;;18.59;68.55
53647;BME280;39550;52.230;5.194;2023-07-30T11:52:09;100949.66;;;18.58;68.62
53647;BME280;39550;52.230;5.194;2023-07-30T11:54:35;100896.31;;;18.32;68.30
53647;BME280;39550;52.230;5.194;2023-07-30T11:57:01;100879.91;;;18.27;68.02
53647;BME280;39550;52.230;5.194;2023-07-30T11:59:26;100895.44;;;18.33;68.13
53647;BME280;39550;52.230;5.194;2023-07-30T12:01:52;100954.13;;;18.53;68.67
53647;BME280;39550;52.230;5.194;2023-07-30T12:04:17;100962.59;;;18.63;68.38
53647;BME280;39550;52.230;5.194;2023-07-30T12:06:45;100877.47;;;18.21;68.72
53647;BME280;39550;52.230;5.194;2023-07-30T12:09:20;100944.38;;;18.61;68.28
53647;BME280;39550;52.230;5.194;2023-07-30T12:11:58;100833.53;;;18.02;67.79
53647;BME280;39550;52.230;5.194;2023-07-30T12:17:08;100962.03;;;18.86;67.64
53647;BME280;39550;52.230;5.194;2023-07-30T12:19:36;100927.88;;;18.59;67.89
53647;BME280;39550;52.230;5.194;2023-07-30T12:22:05;100916.72;;;18.52;67.57
53647;BME280;39550;52.230;5.194;2023-07-30T12:24:31;100861.56;;;18.30;67.50
53647;BME280;39550;52.230;5.194;2023-07-30T12:26:56;100926.69;;;18.72;67.07
53647;BME280;39550;52.230;5.194;2023-07-30T12:29:22;100852.47;;;18.47;66.66
53647;BME280;39550;52.230;5.194;2023-07-30T12:31:47;100879.88;;;18.66;66.67
53647;BME280;39550;52.230;5.194;2023-07-30T12:34:14;100965.53;;;19.21;66.55
53647;BME280;39550;52.230;5.194;2023-07-30T12:36:40;100965.63;;;19.18;66.63
53647;BME280;39550;52.230;5.194;2023-07-30T12:39:05;100911.53;;;18.88;66.49
53647;BME280;39550;52.230;5.194;2023-07-30T12:41:31;100885.50;;;18.84;66.07
53647;BME280;39550;52.230;5.194;2023-07-30T12:43:56;100967.31;;;19.52;65.00
53647;BME280;39550;52.230;5.194;2023-07-30T12:46:22;100948.22;;;19.50;64.08
53647;BME280;39550;52.230;5.194;2023-07-30T12:48:51;100927.41;;;19.45;62.84
53647;BME280;39550;52.230;5.194;2023-07-30T12:51:19;100958.41;;;19.59;63.20
53647;BME280;39550;52.230;5.194;2023-07-30T12:53:45;100966.59;;;19.47;63.39
53647;BME280;39550;52.230;5.194;2023-07-30T12:56:10;100906.19;;;18.93;63.10